EFRO Airport Information

Runway Information
Runway 03 Length 9849 ft width 197 ft
Elevation 633 ft Threshold ft Heading 37
Runway 21 Length 9849 ft Width 197 ft
Elevation 609 ft Threshold ft Heading 217
Airport Frequencies
Type APP Name APP Frequency 125.8 MHZ
Type ATIS Name ATIS Frequency 117.7 MHZ
Type GND Name GND Frequency 118.525 MHZ
Type PMSV Name PMSV METRO Frequency 125.1 MHZ
Type TWR Name TWR Frequency 118.7 MHZ
Airport Navaids
Type NDB Name Papa-Alfa Frequency 377 KHZ
Type VOR-DME Name Rovani Frequency 117700 KHZ
Type NDB Name Toramo Frequency 416 KHZ
Airport Weather Information & NOTAM
ADDS - METARS form results

(1348 UTC 11 August 2022)
Data provider http://aviationweather.gov/metar/data/
 
METAR text: EFRO 111320Z AUTO 26013KT 230V300 CAVOK 19/05 Q1006
Conditions at: EFRO (ROVANIEMI (CIV/M, FI) observed 1320 UTC 11 August 2022
Temperature: 19.0°C (66°F)
Dewpoint: 5.0°C (41°F) [RH = 40%]
Pressure (altimeter): 29.70 inches Hg (1006.0 mb)
Winds: from the W (260 degrees) at 15 MPH (13 knots; 6.7 m/s)
Visibility: 6 or more miles (10+ km)
Ceiling: ceiling and visibility are OK
Clouds: unknown
Weather: no significant weather observed at this time

METAR text: EFRO 111250Z AUTO 27016G26KT 240V310 CAVOK 19/06 Q1006
Conditions at: EFRO (ROVANIEMI (CIV/M, FI) observed 1250 UTC 11 August 2022
Temperature: 19.0°C (66°F)
Dewpoint: 6.0°C (43°F) [RH = 43%]
Pressure (altimeter): 29.70 inches Hg (1006.0 mb)
Winds: from the W (270 degrees) at 18 MPH (16 knots; 8.2 m/s)
gusting to 30 MPH (26 knots; 13.4 m/s)
Visibility: 6 or more miles (10+ km)
Ceiling: ceiling and visibility are OK
Clouds: unknown
Weather: no significant weather observed at this time

Forecast for: EFRO (ROVANIEMI (CIV/M, FI)
Text: TAF EFRO 111128Z 1112/1212 26015G25KT 9999 SCT049
Forecast period: 1200 to 1500 UTC 11 August 2022
Forecast type: FROM: standard forecast or significant change
Winds: from the W (260 degrees) at 17 MPH (15 knots; 7.7 m/s)
gusting to 29 MPH (25 knots; 12.9 m/s)
Visibility: 6 or more miles (10+ km)
Ceiling: at least 12,000 feet AGL
Clouds: scattered clouds at 4900 feet AGL
Weather: no significant weather forecast for this period
Text: TEMPO 1112/1115 26013KT
Forecast period: 1200 to 1500 UTC 11 August 2022
Forecast type: TEMPORARY: The following changes expected for less than half the time period
Winds: from the W (260 degrees) at 15 MPH (13 knots; 6.7 m/s)
Visibility: missing
Ceiling: unknown
Clouds: missing
Weather: no significant weather forecast for this period
Text: BECMG 1115/1117 25012KT
Forecast period: 1500 UTC 11 August 2022 to 1200 UTC 12 August 2022
Forecast type: BECOMING: Conditions expected to become as follows by 1700 UTC 11 August 2022
Winds: from the WSW (250 degrees) at 14 MPH (12 knots; 6.2 m/s)
Visibility: 6 or more miles (10+ km)
Ceiling: at least 12,000 feet AGL
Clouds: scattered clouds at 4900 feet AGL
Weather: no significant weather forecast for this period